Time;durP1;ratioP1;P1;durP2;ratioP2;P2;SDS_P1;SDS_P2;PMS_P1;PMS_P2;Temp;Humidity;BMP_temperature;BMP_pressure;BME280_temperature;BME280_humidity;BME280_pressure;Samples;Min_cycle;Max_cycle;Signal;HPM_P1;HPM_P2
2022/03/16 00:02:07;;;;;;;40.28;19.83;;;8.70;99.90;;;;;;5112178;28;20525;-86
2022/03/16 00:04:33;;;;;;;41.80;20.67;;;8.70;99.90;;;;;;5113985;28;20027;-84
2022/03/16 00:06:58;;;;;;;44.00;19.80;;;8.70;99.90;;;;;;5113112;28;20020;-92
2022/03/16 00:09:24;;;;;;;41.92;20.60;;;8.70;99.90;;;;;;5113642;28;20088;-92
2022/03/16 00:11:49;;;;;;;45.42;22.20;;;8.70;99.90;;;;;;5116480;28;20027;-85
2022/03/16 00:14:16;;;;;;;44.80;20.60;;;8.70;99.90;;;;;;5116853;28;20023;-85
2022/03/16 00:16:41;;;;;;;43.33;20.90;;;8.70;99.90;;;;;;5118328;28;20031;-85
2022/03/16 00:19:07;;;;;;;43.58;20.95;;;8.70;99.90;;;;;;5116914;28;20031;-82
2022/03/16 00:21:34;;;;;;;43.75;21.05;;;8.80;99.90;;;;;;5117385;28;20026;-84
2022/03/16 00:24:02;;;;;;;46.13;21.60;;;8.80;99.90;;;;;;5105870;28;20495;-84
2022/03/16 00:26:28;;;;;;;48.15;22.08;;;8.80;99.90;;;;;;5101289;28;20032;-84
2022/03/16 00:28:54;;;;;;;43.13;20.48;;;8.70;99.90;;;;;;5096684;28;20028;-84
2022/03/16 00:31:20;;;;;;;43.80;21.70;;;8.80;99.90;;;;;;5096232;28;20548;-83
2022/03/16 00:33:46;;;;;;;43.65;20.75;;;8.80;99.90;;;;;;5096558;28;20052;-84
2022/03/16 00:36:11;;;;;;;43.92;20.52;;;8.80;99.90;;;;;;5095843;28;20074;-83
2022/03/16 00:38:37;;;;;;;46.10;21.30;;;8.80;99.90;;;;;;5096740;28;20058;-84
2022/03/16 00:41:03;;;;;;;39.85;19.40;;;8.80;99.90;;;;;;5096801;28;20088;-87
2022/03/16 00:43:29;;;;;;;41.47;21.20;;;8.90;99.90;;;;;;5096333;28;20032;-84
2022/03/16 00:45:54;;;;;;;42.83;20.13;;;8.80;99.90;;;;;;5096732;28;20388;-84
2022/03/16 00:48:20;;;;;;;43.65;20.38;;;8.90;99.90;;;;;;5096052;28;20031;-84
2022/03/16 00:50:45;;;;;;;41.53;21.02;;;8.80;99.90;;;;;;5096688;28;20024;-85
2022/03/16 00:53:11;;;;;;;42.00;20.88;;;8.80;99.90;;;;;;5095716;28;20039;-84
2022/03/16 00:55:37;;;;;;;46.38;22.17;;;8.80;99.90;;;;;;5097453;28;20048;-85
2022/03/16 00:58:03;;;;;;;45.03;20.80;;;8.80;99.90;;;;;;5096366;28;20380;-86
2022/03/16 01:00:28;;;;;;;43.75;21.05;;;8.80;99.90;;;;;;5101887;28;20016;-87
2022/03/16 01:02:55;;;;;;;41.45;20.30;;;8.70;99.90;;;;;;5096077;28;20028;-87
2022/03/16 01:05:20;;;;;;;39.28;20.45;;;8.70;99.90;;;;;;5095377;28;20024;-86
2022/03/16 01:07:46;;;;;;;48.78;21.35;;;8.70;99.90;;;;;;5096952;28;20029;-87
2022/03/16 01:10:12;;;;;;;46.88;22.08;;;8.70;99.90;;;;;;5095356;28;20102;-85
2022/03/16 01:12:38;;;;;;;41.80;20.98;;;8.70;99.90;;;;;;5095680;28;20031;-87
2022/03/16 01:15:05;;;;;;;48.78;23.45;;;8.80;99.90;;;;;;5095664;28;20036;-86
2022/03/16 01:17:30;;;;;;;44.28;21.92;;;8.80;99.90;;;;;;5095519;28;20020;-86
2022/03/16 01:19:56;;;;;;;44.90;21.83;;;8.70;99.90;;;;;;5095765;28;20057;-87
2022/03/16 01:22:21;;;;;;;42.28;20.90;;;8.80;99.90;;;;;;5095547;28;20051;-86
2022/03/16 01:24:47;;;;;;;48.28;22.90;;;8.70;99.90;;;;;;5095758;28;20036;-86
2022/03/16 01:27:13;;;;;;;48.35;23.08;;;8.70;99.90;;;;;;5095085;28;20032;-86
2022/03/16 01:29:38;;;;;;;46.30;21.40;;;8.70;99.90;;;;;;5096710;28;20073;-86
2022/03/16 01:32:04;;;;;;;43.92;21.85;;;8.60;99.90;;;;;;5095803;28;20111;-85
2022/03/16 01:34:30;;;;;;;46.83;22.35;;;8.70;99.90;;;;;;5096891;28;20028;-88
2022/03/16 01:36:56;;;;;;;47.63;21.85;;;8.60;99.90;;;;;;5096935;28;20108;-90
2022/03/16 01:39:21;;;;;;;44.15;21.13;;;8.70;99.90;;;;;;5094816;28;20034;-89
2022/03/16 01:41:47;;;;;;;47.00;22.60;;;8.60;99.90;;;;;;5095668;28;20021;-89
2022/03/16 01:44:13;;;;;;;47.25;21.95;;;8.70;99.90;;;;;;5095206;28;20032;-89
2022/03/16 01:46:39;;;;;;;47.22;22.42;;;8.60;99.90;;;;;;5095443;28;20046;-86
2022/03/16 01:49:04;;;;;;;50.72;23.30;;;8.60;99.90;;;;;;5095455;28;20115;-87
2022/03/16 01:51:31;;;;;;;48.50;23.30;;;8.60;99.90;;;;;;5096105;28;20448;-87
2022/03/16 01:53:57;;;;;;;50.85;22.15;;;8.60;99.90;;;;;;5095201;28;20098;-86
2022/03/16 01:56:23;;;;;;;47.03;22.90;;;8.60;99.90;;;;;;5095856;28;20040;-86
2022/03/16 01:58:49;;;;;;;46.58;21.40;;;8.60;99.90;;;;;;5096169;28;20031;-87
2022/03/16 02:01:15;;;;;;;49.95;22.58;;;8.70;99.90;;;;;;5095400;28;20102;-85
2022/03/16 02:03:42;;;;;;;53.78;23.70;;;8.70;99.90;;;;;;5095088;28;20031;-87
2022/03/16 02:06:09;;;;;;;53.63;24.00;;;8.60;99.90;;;;;;5094829;28;20038;-87
2022/03/16 02:08:36;;;;;;;52.97;24.20;;;8.60;99.90;;;;;;5094516;28;20060;-87
2022/03/16 02:11:02;;;;;;;56.90;24.33;;;8.50;99.90;;;;;;5114016;28;20089;-84
2022/03/16 02:13:28;;;;;;;56.05;24.27;;;8.50;99.90;;;;;;5116731;28;20029;-84
2022/03/16 02:15:53;;;;;;;55.90;25.40;;;8.40;99.90;;;;;;5107000;28;20066;-85
2022/03/16 02:18:19;;;;;;;54.63;23.63;;;8.40;99.90;;;;;;5094442;28;20031;-85
2022/03/16 02:20:50;;;;;;;57.95;25.33;;;8.50;99.90;;;;;;5094727;28;20601;-85
2022/03/16 02:23:16;;;;;;;56.15;24.70;;;8.40;99.90;;;;;;5095044;28;20035;-84
2022/03/16 02:25:53;;;;;;;61.15;25.33;;;8.40;99.90;;;;;;5094524;28;20036;-85
2022/03/16 02:28:20;;;;;;;59.92;25.23;;;8.40;99.90;;;;;;5094155;28;20024;-85
2022/03/16 02:30:47;;;;;;;61.25;25.13;;;8.40;99.90;;;;;;5094631;28;20457;-85
2022/03/16 02:33:13;;;;;;;55.75;24.60;;;8.40;99.90;;;;;;5094201;28;20123;-81
2022/03/16 02:35:38;;;;;;;62.80;24.70;;;8.40;99.90;;;;;;5094169;28;20103;-86
2022/03/16 02:38:05;;;;;;;56.17;24.38;;;8.40;99.90;;;;;;5094500;28;20020;-86
2022/03/16 02:40:30;;;;;;;55.53;23.52;;;8.40;99.90;;;;;;5094984;28;20027;-85
2022/03/16 02:42:56;;;;;;;58.70;25.10;;;8.40;99.90;;;;;;5095533;28;20464;-86
2022/03/16 02:45:22;;;;;;;59.92;24.92;;;8.50;99.90;;;;;;5093773;28;20036;-85
2022/03/16 02:47:48;;;;;;;56.97;24.05;;;8.50;99.90;;;;;;5094286;28;20113;-85
2022/03/16 02:50:16;;;;;;;60.03;23.08;;;8.40;99.90;;;;;;5093998;28;20116;-81
2022/03/16 02:52:43;;;;;;;65.03;24.73;;;8.40;99.90;;;;;;5094066;28;20024;-86
2022/03/16 02:55:09;;;;;;;60.15;25.17;;;8.40;99.90;;;;;;5093707;28;20127;-85
2022/03/16 02:57:35;;;;;;;59.80;23.20;;;8.40;99.90;;;;;;5094780;28;20020;-85
2022/03/16 03:00:02;;;;;;;62.65;24.83;;;8.40;99.90;;;;;;5093937;28;20031;-85
2022/03/16 03:02:28;;;;;;;60.63;24.38;;;8.40;99.90;;;;;;5094693;28;20024;-85
2022/03/16 03:04:53;;;;;;;56.45;23.67;;;8.40;99.90;;;;;;5094197;28;20032;-85
2022/03/16 03:07:19;;;;;;;59.83;22.77;;;8.40;99.90;;;;;;5093558;28;20024;-84
2022/03/16 03:09:44;;;;;;;57.22;23.15;;;8.40;99.90;;;;;;5093559;28;20043;-86
2022/03/16 03:12:10;;;;;;;52.03;21.77;;;8.40;99.90;;;;;;5094573;28;20023;-85
2022/03/16 03:14:36;;;;;;;56.97;22.15;;;8.40;99.90;;;;;;5093137;28;20160;-85
2022/03/16 03:17:02;;;;;;;54.53;22.10;;;8.50;99.90;;;;;;5093598;28;20464;-86
2022/03/16 03:19:28;;;;;;;61.20;22.27;;;8.40;99.90;;;;;;5094260;28;20461;-86
2022/03/16 03:21:54;;;;;;;55.38;23.30;;;8.40;99.90;;;;;;5093831;28;20035;-86
2022/03/16 03:24:19;;;;;;;60.10;23.08;;;8.40;99.90;;;;;;5093041;28;20032;-84
2022/03/16 03:26:45;;;;;;;53.80;20.88;;;8.40;99.90;;;;;;5094700;28;20062;-85
2022/03/16 03:29:11;;;;;;;58.28;21.95;;;8.40;99.90;;;;;;5093739;28;20449;-84
2022/03/16 03:31:37;;;;;;;52.28;21.23;;;8.40;99.90;;;;;;5092677;28;20070;-85
2022/03/16 03:34:03;;;;;;;57.13;22.15;;;8.30;99.90;;;;;;5093230;28;20028;-85
2022/03/16 03:36:29;;;;;;;55.15;21.15;;;8.30;99.90;;;;;;5092621;28;20039;-84
2022/03/16 03:38:55;;;;;;;56.60;21.65;;;8.30;99.90;;;;;;5093224;28;20024;-85
2022/03/16 03:41:21;;;;;;;53.20;21.02;;;8.20;99.90;;;;;;5093879;28;20102;-85
2022/03/16 03:43:47;;;;;;;53.47;21.08;;;8.30;99.90;;;;;;5094261;28;20024;-87
2022/03/16 03:46:13;;;;;;;55.78;21.80;;;8.20;99.90;;;;;;5092886;28;20032;-87
2022/03/16 03:48:39;;;;;;;53.35;21.92;;;8.20;99.90;;;;;;5092589;28;20070;-87
2022/03/16 03:51:04;;;;;;;56.30;21.52;;;8.20;99.90;;;;;;5093398;28;20024;-87
2022/03/16 03:53:30;;;;;;;56.90;21.08;;;8.20;99.90;;;;;;5094170;28;20492;-87
2022/03/16 03:55:57;;;;;;;55.55;20.88;;;8.20;99.90;;;;;;5094019;28;20481;-87
2022/03/16 03:58:22;;;;;;;55.63;21.17;;;8.20;99.90;;;;;;5093167;28;20109;-86
2022/03/16 04:00:49;;;;;;;54.03;21.33;;;8.20;99.90;;;;;;5093868;28;20051;-86
2022/03/16 04:03:15;;;;;;;52.13;21.85;;;8.20;99.90;;;;;;5093690;28;20024;-86
2022/03/16 04:05:41;;;;;;;53.53;21.30;;;8.20;99.90;;;;;;5093754;28;20032;-86
2022/03/16 04:08:07;;;;;;;54.67;20.70;;;8.20;99.90;;;;;;5093810;28;20453;-85
2022/03/16 04:10:33;;;;;;;56.90;21.67;;;8.10;99.90;;;;;;5092311;28;20029;-85
2022/03/16 04:12:58;;;;;;;54.05;21.20;;;8.10;99.90;;;;;;5093928;28;20052;-88
2022/03/16 04:15:24;;;;;;;50.13;21.05;;;8.10;99.90;;;;;;5092930;28;20032;-86
2022/03/16 04:17:49;;;;;;;60.15;22.33;;;8.10;99.90;;;;;;5093122;28;20058;-87
2022/03/16 04:20:15;;;;;;;57.00;21.80;;;8.10;99.90;;;;;;5092702;28;20081;-87
2022/03/16 04:22:40;;;;;;;52.42;21.73;;;8.00;99.90;;;;;;5093933;28;20028;-87
2022/03/16 04:25:07;;;;;;;56.40;21.35;;;8.00;99.90;;;;;;5093899;28;20028;-87
2022/03/16 04:27:32;;;;;;;54.33;21.00;;;8.00;99.90;;;;;;5092622;28;20032;-87
2022/03/16 04:29:58;;;;;;;52.75;21.05;;;8.00;99.90;;;;;;5092966;28;20031;-87
2022/03/16 04:32:24;;;;;;;51.28;20.60;;;8.00;99.90;;;;;;5092346;28;20026;-87
2022/03/16 04:34:49;;;;;;;50.35;21.70;;;8.00;99.90;;;;;;5092613;28;20032;-88
2022/03/16 04:37:15;;;;;;;51.30;21.63;;;8.00;99.90;;;;;;5093141;28;20031;-88
2022/03/16 04:39:40;;;;;;;52.17;21.52;;;8.00;99.90;;;;;;5092191;28;20048;-85
2022/03/16 04:42:06;;;;;;;54.47;21.58;;;8.10;99.90;;;;;;5093348;28;20034;-83
2022/03/16 04:44:32;;;;;;;49.80;19.27;;;8.10;99.90;;;;;;5091564;28;20469;-83
2022/03/16 04:46:58;;;;;;;48.25;20.63;;;8.10;99.90;;;;;;5093380;28;20082;-83
2022/03/16 04:49:24;;;;;;;47.35;20.25;;;8.10;99.90;;;;;;5091523;28;20050;-83
2022/03/16 04:51:50;;;;;;;47.60;19.38;;;8.10;99.90;;;;;;5092386;28;20059;-84
2022/03/16 04:54:16;;;;;;;45.60;20.52;;;8.10;99.90;;;;;;5093233;28;20102;-83
2022/03/16 04:56:42;;;;;;;48.53;20.70;;;8.10;99.90;;;;;;5092571;28;20024;-83
2022/03/16 04:59:08;;;;;;;47.35;19.77;;;8.10;99.90;;;;;;5095267;28;20028;-83
2022/03/16 05:01:34;;;;;;;44.13;20.20;;;8.00;99.90;;;;;;5095395;28;20028;-85
2022/03/16 05:04:00;;;;;;;43.97;19.33;;;8.00;99.90;;;;;;5113440;28;20024;-84
2022/03/16 05:06:26;;;;;;;43.00;19.42;;;8.00;99.90;;;;;;5095274;28;20457;-83
2022/03/16 05:08:51;;;;;;;44.42;19.58;;;8.00;99.90;;;;;;5096017;28;20032;-84
2022/03/16 05:11:20;;;;;;;43.22;18.85;;;8.00;99.90;;;;;;5096139;28;20028;-88
2022/03/16 05:13:46;;;;;;;39.63;18.27;;;8.00;99.90;;;;;;5095518;28;20024;-86
2022/03/16 05:16:12;;;;;;;42.75;19.38;;;8.00;99.90;;;;;;5095861;28;20059;-87
2022/03/16 05:18:40;;;;;;;42.08;18.15;;;8.00;99.90;;;;;;5096166;28;20468;-87
2022/03/16 05:21:08;;;;;;;36.13;17.83;;;8.00;99.90;;;;;;5095710;28;20062;-84
2022/03/16 05:23:34;;;;;;;36.60;18.52;;;8.00;99.90;;;;;;5095062;28;20058;-83
2022/03/16 05:26:00;;;;;;;41.35;18.50;;;8.10;99.90;;;;;;5095655;28;20465;-84
2022/03/16 05:28:25;;;;;;;40.10;18.00;;;8.00;99.90;;;;;;5095025;28;20074;-80
2022/03/16 05:30:51;;;;;;;36.80;17.15;;;8.00;99.90;;;;;;5096475;28;20024;-84
2022/03/16 05:33:17;;;;;;;34.65;16.17;;;8.00;99.90;;;;;;5095274;28;20024;-84
2022/03/16 05:35:43;;;;;;;32.08;16.40;;;8.00;99.90;;;;;;5096123;28;20032;-85
2022/03/16 05:38:12;;;;;;;37.17;16.90;;;8.00;99.90;;;;;;5095418;28;20028;-83
2022/03/16 05:40:39;;;;;;;36.10;17.30;;;8.00;99.90;;;;;;5095061;28;20058;-86
2022/03/16 05:43:05;;;;;;;32.38;16.23;;;8.00;99.90;;;;;;5096576;28;20035;-86
2022/03/16 05:45:30;;;;;;;36.40;17.75;;;8.00;99.90;;;;;;5095057;28;20028;-85
2022/03/16 05:47:56;;;;;;;37.03;17.02;;;8.00;99.90;;;;;;5095561;28;20125;-87
2022/03/16 05:50:22;;;;;;;35.45;17.10;;;8.00;99.90;;;;;;5096467;28;20492;-88
2022/03/16 05:52:48;;;;;;;33.35;15.73;;;8.00;99.90;;;;;;5093856;28;20031;-86
2022/03/16 05:55:14;;;;;;;35.78;16.85;;;8.00;99.90;;;;;;5094151;28;20518;-83
2022/03/16 05:57:40;;;;;;;32.15;16.52;;;8.00;99.90;;;;;;5095075;28;20090;-84
2022/03/16 06:00:14;;;;;;;34.85;17.58;;;8.00;99.90;;;;;;5094713;28;20016;-83
2022/03/16 06:02:41;;;;;;;33.80;17.08;;;8.00;99.90;;;;;;5093109;28;20016;-83
2022/03/16 06:05:07;;;;;;;37.03;17.33;;;8.00;99.90;;;;;;5095055;28;20082;-85
2022/03/16 06:07:33;;;;;;;38.42;18.40;;;8.00;99.90;;;;;;5094146;28;20097;-86
2022/03/16 06:09:59;;;;;;;39.50;18.15;;;8.10;99.90;;;;;;5094611;28;20024;-83
2022/03/16 06:12:25;;;;;;;32.08;16.83;;;8.00;99.90;;;;;;5094480;28;20024;-81
2022/03/16 06:14:51;;;;;;;33.20;17.05;;;8.10;99.90;;;;;;5094012;28;20028;-83
2022/03/16 06:17:17;;;;;;;34.78;17.90;;;8.10;99.90;;;;;;5095697;28;20167;-84
2022/03/16 06:19:42;;;;;;;33.97;17.25;;;8.10;99.90;;;;;;5093906;28;20476;-82
2022/03/16 06:22:08;;;;;;;32.92;16.63;;;8.10;99.90;;;;;;5095237;28;20020;-82
2022/03/16 06:24:34;;;;;;;32.40;17.23;;;8.10;99.90;;;;;;5093768;28;20122;-88
2022/03/16 06:26:59;;;;;;;32.22;16.42;;;8.10;99.90;;;;;;5095462;28;20032;-88
2022/03/16 06:29:25;;;;;;;34.67;17.33;;;8.10;99.90;;;;;;5095568;28;20024;-83
2022/03/16 06:31:50;;;;;;;33.90;16.90;;;8.10;99.90;;;;;;5093890;28;20106;-84
2022/03/16 06:34:16;;;;;;;36.63;16.60;;;8.20;99.90;;;;;;5094097;28;20484;-83
2022/03/16 06:36:42;;;;;;;35.60;17.42;;;8.20;99.90;;;;;;5093833;28;20032;-84
2022/03/16 06:39:07;;;;;;;31.95;17.30;;;8.20;99.90;;;;;;5094045;28;20046;-83
2022/03/16 06:41:33;;;;;;;31.85;15.75;;;8.20;99.90;;;;;;5093753;28;20024;-85
2022/03/16 06:43:58;;;;;;;30.00;16.02;;;8.30;99.90;;;;;;5094446;28;20107;-85
2022/03/16 06:46:27;;;;;;;32.65;16.60;;;8.30;99.90;;;;;;5095201;28;20063;-86
2022/03/16 06:48:52;;;;;;;32.28;15.55;;;8.30;99.90;;;;;;5093897;28;20051;-89
2022/03/16 06:51:18;;;;;;;34.05;16.42;;;8.30;99.90;;;;;;5095419;28;20024;-88
2022/03/16 06:53:43;;;;;;;29.98;16.63;;;8.30;99.90;;;;;;5093366;28;20477;-88
2022/03/16 06:56:09;;;;;;;29.30;15.55;;;8.30;99.90;;;;;;5095143;28;20046;-88
2022/03/16 06:58:35;;;;;;;31.98;15.23;;;8.40;99.90;;;;;;5093770;28;20106;-88
2022/03/16 07:01:00;;;;;;;31.70;16.90;;;8.40;99.90;;;;;;5094389;28;20024;-88
2022/03/16 07:03:26;;;;;;;33.08;16.50;;;8.40;99.90;;;;;;5093860;28;20063;-88
2022/03/16 07:05:52;;;;;;;31.67;16.20;;;8.40;99.90;;;;;;5093130;28;20418;-88
2022/03/16 07:08:17;;;;;;;33.50;17.33;;;8.40;99.90;;;;;;5093566;28;20065;-88
2022/03/16 07:10:44;;;;;;;29.15;15.57;;;8.40;99.90;;;;;;5094088;28;20055;-89
2022/03/16 07:13:13;;;;;;;29.67;15.52;;;8.40;99.90;;;;;;5093473;28;20024;-87
2022/03/16 07:15:41;;;;;;;31.20;15.45;;;8.50;99.90;;;;;;5090333;28;20028;-86
2022/03/16 07:18:07;;;;;;;30.92;15.45;;;8.50;99.90;;;;;;5094160;28;20020;-86
2022/03/16 07:20:33;;;;;;;32.53;15.73;;;8.50;99.90;;;;;;5093961;28;20099;-84
2022/03/16 07:23:06;;;;;;;33.42;16.70;;;8.50;99.90;;;;;;5093709;28;20024;-86
2022/03/16 07:25:32;;;;;;;30.13;15.20;;;8.50;99.90;;;;;;5092867;28;20076;-81
2022/03/16 07:27:58;;;;;;;33.53;15.48;;;8.60;99.90;;;;;;5093305;28;20054;-84
2022/03/16 07:30:24;;;;;;;30.05;15.40;;;8.60;99.90;;;;;;5093128;28;20016;-86
2022/03/16 07:32:50;;;;;;;31.33;16.35;;;8.60;99.90;;;;;;5092782;28;20016;-85
2022/03/16 07:35:16;;;;;;;33.63;16.10;;;8.60;99.90;;;;;;5093006;28;20384;-85
2022/03/16 07:37:42;;;;;;;32.05;16.33;;;8.60;99.90;;;;;;5093553;28;20053;-87
2022/03/16 07:40:08;;;;;;;31.05;15.77;;;8.70;99.90;;;;;;5093378;28;20032;-89
2022/03/16 07:42:37;;;;;;;30.42;15.88;;;8.70;99.90;;;;;;5093743;28;20020;-89
2022/03/16 07:45:04;;;;;;;30.05;15.23;;;8.70;99.90;;;;;;5093165;28;20464;-90
2022/03/16 07:47:30;;;;;;;33.72;16.48;;;8.70;99.90;;;;;;5094524;28;20024;-82
2022/03/16 07:49:56;;;;;;;32.47;16.10;;;8.70;99.90;;;;;;5094031;28;20020;-85
2022/03/16 07:52:23;;;;;;;35.22;16.95;;;8.70;99.90;;;;;;5093036;28;20024;-86
2022/03/16 07:54:49;;;;;;;32.45;16.45;;;8.70;99.90;;;;;;5093440;28;20047;-84
2022/03/16 07:57:16;;;;;;;32.45;16.30;;;8.70;99.90;;;;;;5092840;28;20052;-84
2022/03/16 07:59:42;;;;;;;34.40;16.70;;;8.80;99.90;;;;;;5092204;28;20205;-84
2022/03/16 08:02:08;;;;;;;31.20;16.13;;;8.80;99.90;;;;;;5092603;28;20031;-84
2022/03/16 08:04:33;;;;;;;35.55;17.05;;;8.80;99.90;;;;;;5092499;28;20021;-80
2022/03/16 08:06:59;;;;;;;35.00;16.58;;;8.90;99.90;;;;;;5093890;28;20051;-87
2022/03/16 08:09:25;;;;;;;34.30;16.30;;;8.90;99.90;;;;;;5094188;28;20056;-87
2022/03/16 08:11:50;;;;;;;32.92;16.40;;;8.90;99.90;;;;;;5092488;28;20139;-86
2022/03/16 08:14:16;;;;;;;37.13;16.08;;;9.00;99.90;;;;;;5092631;28;20122;-85
2022/03/16 08:16:42;;;;;;;29.60;15.93;;;9.00;99.90;;;;;;5093166;28;20500;-86
2022/03/16 08:19:07;;;;;;;33.25;15.93;;;9.10;99.90;;;;;;5092256;28;20016;-86
2022/03/16 08:21:33;;;;;;;31.50;15.80;;;9.10;99.90;;;;;;5092277;28;20092;-82
2022/03/16 08:23:58;;;;;;;35.05;15.50;;;9.20;99.90;;;;;;5092234;28;20035;-86
2022/03/16 08:26:24;;;;;;;33.97;16.65;;;9.20;99.90;;;;;;5092727;28;20024;-84
2022/03/16 08:28:51;;;;;;;34.17;16.42;;;9.20;99.90;;;;;;5093398;28;20078;-87
2022/03/16 08:31:17;;;;;;;36.65;16.77;;;9.30;99.90;;;;;;5092522;28;20026;-87
2022/03/16 08:33:43;;;;;;;31.13;16.20;;;9.30;99.90;;;;;;5096208;28;20023;-86
2022/03/16 08:36:09;;;;;;;35.08;18.02;;;9.40;99.90;;;;;;5097644;28;20024;-87
2022/03/16 08:38:37;;;;;;;37.72;17.05;;;9.40;99.90;;;;;;5096393;28;20069;-82
2022/03/16 08:41:10;;;;;;;34.45;16.90;;;9.50;99.90;;;;;;5096070;28;20056;-85
2022/03/16 08:43:37;;;;;;;37.78;17.58;;;9.50;99.90;;;;;;5094118;28;20052;-81
2022/03/16 08:46:04;;;;;;;38.72;18.05;;;9.60;99.90;;;;;;5097382;28;20028;-86
2022/03/16 08:48:30;;;;;;;38.53;17.73;;;9.60;99.90;;;;;;5093805;28;20020;-86
2022/03/16 08:50:55;;;;;;;38.97;18.00;;;9.70;99.90;;;;;;5095196;28;20016;-85
2022/03/16 08:53:21;;;;;;;37.92;17.63;;;9.70;99.90;;;;;;5097031;28;20024;-84
2022/03/16 08:55:47;;;;;;;38.80;18.63;;;9.80;99.90;;;;;;5095104;28;20032;-84
2022/03/16 08:58:14;;;;;;;37.22;17.30;;;9.80;99.90;;;;;;5097122;28;20095;-84
2022/03/16 09:00:41;;;;;;;39.50;18.10;;;9.90;99.90;;;;;;5095387;28;20040;-83
2022/03/16 09:03:07;;;;;;;39.95;19.15;;;9.90;99.90;;;;;;5095906;28;20020;-84
2022/03/16 09:05:34;;;;;;;45.55;17.27;;;9.90;99.90;;;;;;5095810;28;20166;-84
2022/03/16 09:08:00;;;;;;;46.60;19.55;;;10.00;99.90;;;;;;5095486;28;20024;-89
2022/03/16 09:10:26;;;;;;;40.00;18.27;;;10.00;99.90;;;;;;5095929;28;20028;-84
2022/03/16 09:12:52;;;;;;;41.63;18.13;;;10.10;99.90;;;;;;5093230;28;20481;-82
2022/03/16 09:15:18;;;;;;;37.50;17.52;;;10.10;99.90;;;;;;5098308;28;20059;-84
2022/03/16 09:17:44;;;;;;;43.72;18.48;;;10.20;99.90;;;;;;5094660;28;20388;-83
2022/03/16 09:20:09;;;;;;;46.72;18.65;;;10.30;99.90;;;;;;5096447;28;20035;-84
2022/03/16 09:22:35;;;;;;;41.67;17.88;;;10.40;99.90;;;;;;5095225;28;20066;-83
2022/03/16 09:25:01;;;;;;;38.35;17.80;;;10.40;99.90;;;;;;5095187;28;20114;-84
2022/03/16 09:27:27;;;;;;;43.60;18.90;;;10.50;99.90;;;;;;5096031;28;20028;-83
2022/03/16 09:29:54;;;;;;;41.78;18.27;;;10.50;99.90;;;;;;5094254;28;20069;-83
2022/03/16 09:32:21;;;;;;;39.03;18.98;;;10.50;99.90;;;;;;5094725;28;20035;-80
2022/03/16 09:34:48;;;;;;;40.92;17.92;;;10.60;99.90;;;;;;5095924;28;20047;-80
2022/03/16 09:37:14;;;;;;;36.67;17.50;;;10.70;99.90;;;;;;5092534;28;20024;-81
2022/03/16 09:39:40;;;;;;;39.38;18.17;;;10.70;99.90;;;;;;5105566;28;20028;-79
2022/03/16 09:42:08;;;;;;;40.63;18.63;;;10.80;99.90;;;;;;5091113;28;20047;-81
2022/03/16 09:44:34;;;;;;;39.47;17.60;;;10.80;99.90;;;;;;5094228;28;20032;-80
2022/03/16 09:47:00;;;;;;;36.67;18.13;;;10.90;99.90;;;;;;5090869;28;20017;-80
2022/03/16 09:49:29;;;;;;;38.13;17.40;;;11.00;99.90;;;;;;5092792;28;20032;-80
2022/03/16 09:51:55;;;;;;;37.17;16.55;;;11.00;99.90;;;;;;5092549;28;20032;-80
2022/03/16 09:54:22;;;;;;;38.80;16.52;;;11.10;99.90;;;;;;5083744;28;20048;-80
2022/03/16 09:56:47;;;;;;;38.25;17.33;;;11.20;99.90;;;;;;5091490;28;20114;-86
2022/03/16 09:59:14;;;;;;;31.33;15.98;;;11.30;99.90;;;;;;5091822;28;20068;-85
2022/03/16 10:01:42;;;;;;;39.38;17.52;;;11.30;99.90;;;;;;5098263;28;20457;-82
2022/03/16 10:04:08;;;;;;;34.97;17.65;;;11.40;99.90;;;;;;5094527;28;20030;-81
2022/03/16 10:06:41;;;;;;;37.10;17.73;;;11.40;99.90;;;;;;5092326;28;20400;-84
2022/03/16 10:15:21;;;;;;;34.45;16.70;;;11.60;99.90;;;;;;5092734;28;20563;-82
2022/03/16 10:17:49;;;;;;;33.08;16.98;;;11.70;99.90;;;;;;5086697;28;20071;-81
2022/03/16 10:20:19;;;;;;;36.15;16.63;;;11.70;99.90;;;;;;5093709;28;20031;-81
2022/03/16 10:23:04;;;;;;;34.22;16.23;;;11.80;99.90;;;;;;5091725;28;20085;-83
2022/03/16 10:25:39;;;;;;;36.83;15.55;;;11.90;99.90;;;;;;5091079;28;20088;-82
2022/03/16 10:28:11;;;;;;;36.20;16.33;;;12.00;99.90;;;;;;5092262;28;20043;-81
2022/03/16 10:30:57;;;;;;;34.50;15.20;;;12.00;99.90;;;;;;5092771;28;20032;-81
2022/03/16 10:33:26;;;;;;;28.40;14.98;;;12.10;99.90;;;;;;5098876;28;20024;-79
2022/03/16 10:36:11;;;;;;;28.30;14.02;;;12.00;99.90;;;;;;5091394;28;20036;-80
2022/03/16 10:38:46;;;;;;;28.85;14.88;;;12.10;99.90;;;;;;5089626;28;20028;-81
2022/03/16 10:47:16;;;;;;;26.48;13.48;;;12.30;99.90;;;;;;5089551;28;20027;-81
2022/03/16 10:49:48;;;;;;;28.80;13.93;;;12.30;99.90;;;;;;5095220;28;20040;-79
2022/03/16 10:52:18;;;;;;;26.67;12.93;;;12.40;99.90;;;;;;5106221;28;20027;-79
2022/03/16 10:54:45;;;;;;;25.27;13.52;;;12.50;99.90;;;;;;5090638;28;20054;-81
2022/03/16 10:57:13;;;;;;;28.48;14.57;;;12.50;99.90;;;;;;5091193;28;20036;-83
2022/03/16 10:59:42;;;;;;;28.38;13.70;;;12.60;99.90;;;;;;5094438;28;20035;-79
2022/03/16 11:02:13;;;;;;;26.65;12.85;;;12.60;99.90;;;;;;5094947;28;20028;-82
2022/03/16 11:04:44;;;;;;;25.40;12.88;;;12.70;99.90;;;;;;5100987;28;20055;-80
2022/03/16 11:07:10;;;;;;;26.80;13.10;;;12.80;99.90;;;;;;5095166;28;20061;-90
2022/03/16 11:09:38;;;;;;;23.70;12.88;;;12.80;99.90;;;;;;5097811;28;20035;-82
2022/03/16 11:14:51;;;;;;;26.00;13.40;;;12.80;99.90;;;;;;5095557;28;20120;-87
2022/03/16 11:17:18;;;;;;;29.15;13.57;;;12.90;99.90;;;;;;5094711;28;20054;-77
2022/03/16 11:19:46;;;;;;;26.98;13.90;;;13.00;99.90;;;;;;5095857;28;20032;-79
2022/03/16 11:22:14;;;;;;;29.13;14.10;;;13.00;99.90;;;;;;5096028;28;20115;-88
2022/03/16 11:24:47;;;;;;;25.15;12.88;;;13.10;99.90;;;;;;5094837;28;20077;-87
2022/03/16 11:27:40;;;;;;;21.90;12.63;;;13.10;99.90;;;;;;5091185;28;20040;-82
2022/03/16 11:30:33;;;;;;;31.95;14.07;;;13.30;99.90;;;;;;5093540;28;20036;-81
2022/03/16 11:33:08;;;;;;;28.52;13.20;;;13.30;99.90;;;;;;5089129;28;20024;-80
2022/03/16 11:35:36;;;;;;;27.42;13.57;;;13.40;99.90;;;;;;5094378;28;20589;-84
2022/03/16 11:38:09;;;;;;;26.02;13.77;;;13.50;99.90;;;;;;5105505;28;20051;-83
2022/03/16 11:40:38;;;;;;;25.58;13.65;;;13.70;99.90;;;;;;5092659;28;20119;-87
2022/03/16 11:43:04;;;;;;;28.40;15.18;;;13.70;99.90;;;;;;5091373;28;20020;-87
2022/03/16 11:45:42;;;;;;;25.90;14.25;;;13.80;99.90;;;;;;5093256;28;20027;-83
2022/03/16 11:48:26;;;;;;;26.58;12.65;;;13.80;99.90;;;;;;5107666;28;20460;-83
2022/03/16 11:51:13;;;;;;;29.42;14.57;;;13.80;99.90;;;;;;5090459;28;20474;-83
2022/03/16 11:53:50;;;;;;;26.17;13.85;;;13.80;99.90;;;;;;5106419;28;20055;-84
2022/03/16 11:56:23;;;;;;;25.40;13.95;;;13.70;99.90;;;;;;5091797;28;20055;-85
2022/03/16 11:58:53;;;;;;;23.65;13.30;;;13.70;99.90;;;;;;5094212;28;20054;-91
2022/03/16 12:01:23;;;;;;;26.40;13.52;;;13.70;99.90;;;;;;5105711;28;20081;-92
2022/03/16 12:03:57;;;;;;;27.00;13.90;;;13.70;99.90;;;;;;5106488;28;20033;-92
2022/03/16 12:06:28;;;;;;;27.88;14.77;;;13.70;99.90;;;;;;5097709;28;20039;-88
2022/03/16 12:08:58;;;;;;;24.98;13.15;;;13.70;99.90;;;;;;5111537;28;20047;-90
2022/03/16 12:14:08;;;;;;;29.05;14.00;;;13.60;99.90;;;;;;5098998;28;20081;-88
2022/03/16 12:16:43;;;;;;;28.05;13.40;;;13.60;99.90;;;;;;5107151;28;20036;-95
2022/03/16 12:19:31;;;;;;;27.67;14.15;;;13.70;99.90;;;;;;5168798;22;20061;-92
2022/03/16 12:21:57;;;;;;;27.30;14.05;;;13.70;99.90;;;;;;5054414;28;20028;-91
2022/03/16 12:30:05;;;;;;;29.00;12.95;;;14.00;99.90;;;;;;5089654;28;20103;-87
2022/03/16 12:32:36;;;;;;;25.10;13.45;;;14.00;99.90;;;;;;5060743;28;20048;-90
2022/03/16 12:35:06;;;;;;;24.90;12.77;;;14.10;99.90;;;;;;5062563;28;20037;-86
2022/03/16 12:37:32;;;;;;;24.98;13.35;;;14.10;99.90;;;;;;5072739;28;20047;-88
2022/03/16 12:39:58;;;;;;;25.83;13.15;;;14.10;99.90;;;;;;5062391;28;20457;-82
2022/03/16 12:42:33;;;;;;;25.55;12.95;;;14.00;99.90;;;;;;5057725;28;20045;-86
2022/03/16 12:45:09;;;;;;;26.95;13.52;;;14.10;99.90;;;;;;5068501;28;20063;-81
2022/03/16 12:47:41;;;;;;;23.42;12.65;;;14.00;99.90;;;;;;5066682;28;20037;-88
2022/03/16 12:50:12;;;;;;;24.95;12.90;;;14.00;99.90;;;;;;5076134;28;20120;-86
2022/03/16 12:52:39;;;;;;;26.63;13.00;;;14.10;99.90;;;;;;5065062;28;20078;-86
2022/03/16 12:55:15;;;;;;;22.95;12.07;;;14.10;99.90;;;;;;5073460;28;20029;-87
2022/03/16 12:57:56;;;;;;;22.67;12.18;;;14.10;99.90;;;;;;5053041;28;20063;-87